Time;durP1;ratioP1;P1;durP2;ratioP2;P2;SDS_P1;SDS_P2;PMS_P1;PMS_P2;Temp;Humidity;BMP_temperature;BMP_pressure;BME280_temperature;BME280_humidity;BME280_pressure;Samples;Min_cycle;Max_cycle;Signal;HPM_P1;HPM_P2
2022/03/08 00:01:06;;;;;;;68.32;33.72;;;51.80;2227.20;;;;;;5134055;27;20068;-56
2022/03/08 00:03:33;;;;;;;64.07;30.42;;;51.90;2227.20;;;;;;5132439;27;20039;-56
2022/03/08 00:05:59;;;;;;;68.05;32.03;;;51.90;2227.20;;;;;;5132772;27;20126;-55
2022/03/08 00:08:25;;;;;;;62.42;31.02;;;51.80;2227.20;;;;;;5132472;27;20034;-57
2022/03/08 00:10:51;;;;;;;63.13;31.52;;;51.90;2227.20;;;;;;5133994;27;20023;-53
2022/03/08 00:13:17;;;;;;;65.78;32.72;;;52.00;2227.20;;;;;;5134095;27;20027;-58
2022/03/08 00:15:43;;;;;;;67.88;33.13;;;52.00;2227.20;;;;;;5134208;27;20468;-54
2022/03/08 00:18:09;;;;;;;63.53;31.98;;;52.00;2227.20;;;;;;5134575;27;20034;-58
2022/03/08 00:20:35;;;;;;;59.60;30.52;;;52.00;2227.20;;;;;;5133928;27;20027;-58
2022/03/08 00:23:01;;;;;;;60.67;29.92;;;51.90;2227.20;;;;;;5132905;27;20049;-53
2022/03/08 00:25:27;;;;;;;63.20;29.90;;;51.90;2227.20;;;;;;5134394;27;20031;-57
2022/03/08 00:27:53;;;;;;;57.35;29.27;;;51.90;2227.20;;;;;;5134277;27;20019;-57
2022/03/08 00:30:21;;;;;;;63.33;30.55;;;52.00;2227.20;;;;;;5134324;27;20023;-59
2022/03/08 00:32:48;;;;;;;61.38;29.13;;;51.90;2227.20;;;;;;5131484;27;20496;-57
2022/03/08 00:35:14;;;;;;;59.45;28.88;;;52.00;2227.20;;;;;;5133989;27;20015;-58
2022/03/08 00:37:41;;;;;;;55.50;27.38;;;52.00;2227.20;;;;;;5134018;27;20023;-53
2022/03/08 00:40:09;;;;;;;53.75;27.08;;;51.90;2227.20;;;;;;5129764;27;20023;-59
2022/03/08 00:42:35;;;;;;;54.05;27.35;;;51.90;2227.20;;;;;;5133906;27;20050;-57
2022/03/08 00:45:02;;;;;;;55.35;27.27;;;51.90;2227.20;;;;;;5133193;27;20015;-55
2022/03/08 00:47:28;;;;;;;58.13;27.45;;;51.90;2227.20;;;;;;5130986;27;20023;-55
2022/03/08 00:49:53;;;;;;;56.03;26.95;;;51.90;2227.20;;;;;;5133738;27;20484;-58
2022/03/08 00:52:20;;;;;;;55.60;28.00;;;51.90;2227.20;;;;;;5133418;27;20050;-52
2022/03/08 00:54:46;;;;;;;56.17;27.00;;;51.80;2227.20;;;;;;5133238;27;20026;-56
2022/03/08 00:57:11;;;;;;;58.00;27.70;;;51.90;2227.20;;;;;;5130610;27;20015;-58
2022/03/08 00:59:37;;;;;;;57.08;28.23;;;51.90;2227.20;;;;;;5133374;27;20481;-58
2022/03/08 01:02:04;;;;;;;58.45;28.48;;;51.80;2227.20;;;;;;5133380;27;20056;-56
2022/03/08 01:04:29;;;;;;;56.72;28.33;;;51.80;2227.20;;;;;;5133466;27;20019;-55
2022/03/08 01:06:55;;;;;;;58.88;28.17;;;51.70;2227.20;;;;;;5132727;27;20365;-58
2022/03/08 01:09:22;;;;;;;55.05;27.95;;;51.80;2227.20;;;;;;5132902;27;20050;-59
2022/03/08 01:11:48;;;;;;;57.45;27.15;;;51.80;2227.20;;;;;;5131528;27;20384;-58
2022/03/08 01:14:13;;;;;;;55.53;27.60;;;51.90;2227.20;;;;;;5132397;27;20110;-58
2022/03/08 01:16:39;;;;;;;55.53;27.48;;;51.90;2227.20;;;;;;5132367;27;20029;-57
2022/03/08 01:19:06;;;;;;;55.08;27.70;;;51.90;2227.20;;;;;;5132459;27;20034;-59
2022/03/08 01:21:36;;;;;;;55.22;26.83;;;51.80;2227.20;;;;;;5132373;27;20080;-58
2022/03/08 01:24:02;;;;;;;56.20;26.92;;;51.80;2227.20;;;;;;5127410;27;20030;-58
2022/03/08 01:26:27;;;;;;;57.13;27.88;;;51.80;2227.20;;;;;;5131920;27;20023;-58
2022/03/08 01:28:53;;;;;;;56.08;26.45;;;51.80;2227.20;;;;;;5130029;27;20049;-57
2022/03/08 01:31:19;;;;;;;58.08;26.80;;;51.90;2227.20;;;;;;5133196;28;20490;-58
2022/03/08 01:33:45;;;;;;;58.60;28.25;;;51.80;2227.20;;;;;;5133325;27;20027;-55
2022/03/08 01:36:12;;;;;;;64.88;32.53;;;51.80;2227.20;;;;;;5133286;27;20035;-58
2022/03/08 01:38:37;;;;;;;59.42;29.60;;;51.90;2227.20;;;;;;5132739;28;20031;-59
2022/03/08 01:41:03;;;;;;;65.18;32.13;;;51.80;2227.20;;;;;;5132878;28;20069;-58
2022/03/08 01:43:29;;;;;;;59.95;29.73;;;51.90;2227.20;;;;;;5131045;27;20055;-58
2022/03/08 01:45:54;;;;;;;61.58;30.77;;;51.90;2227.20;;;;;;5133126;28;20381;-58
2022/03/08 01:48:20;;;;;;;59.80;28.70;;;51.90;2227.20;;;;;;5133148;28;20027;-58
2022/03/08 01:50:47;;;;;;;56.60;28.08;;;52.00;2227.20;;;;;;5132630;27;20349;-58
2022/03/08 01:53:13;;;;;;;55.97;27.60;;;52.00;2227.20;;;;;;5133002;28;20023;-58
2022/03/08 01:55:39;;;;;;;59.63;29.33;;;52.00;2227.20;;;;;;5132776;28;20024;-59
2022/03/08 01:58:05;;;;;;;60.75;31.13;;;52.00;2227.20;;;;;;5132930;27;20088;-58
2022/03/08 02:00:32;;;;;;;60.75;28.98;;;52.00;2227.20;;;;;;5128875;27;20480;-58
2022/03/08 02:02:59;;;;;;;62.72;30.52;;;52.00;2227.20;;;;;;5133364;27;20028;-58
2022/03/08 02:05:26;;;;;;;58.53;27.90;;;52.00;2227.20;;;;;;5133893;27;20011;-57
2022/03/08 02:07:55;;;;;;;57.05;28.73;;;51.90;2227.20;;;;;;5133898;27;20023;-57
2022/03/08 02:10:21;;;;;;;59.08;28.88;;;52.00;2227.20;;;;;;5133815;28;20044;-58
2022/03/08 02:12:47;;;;;;;56.90;28.38;;;51.90;2227.20;;;;;;5133787;27;20057;-56
2022/03/08 02:15:22;;;;;;;52.70;27.10;;;51.90;2227.20;;;;;;5133709;27;20016;-58
2022/03/08 02:17:48;;;;;;;57.25;28.20;;;51.90;2227.20;;;;;;5129698;27;20077;-59
2022/03/08 02:20:15;;;;;;;59.83;28.63;;;51.90;2227.20;;;;;;5113612;28;20087;-58
2022/03/08 02:22:43;;;;;;;59.47;27.92;;;51.80;2227.20;;;;;;5113490;28;20035;-58
2022/03/08 02:25:09;;;;;;;56.20;27.77;;;51.80;2227.20;;;;;;5113745;28;20034;-60
2022/03/08 02:27:41;;;;;;;58.28;28.20;;;51.80;2227.20;;;;;;5117748;28;20028;-54
2022/03/08 02:30:08;;;;;;;58.17;28.23;;;51.70;2227.20;;;;;;5117638;28;20055;-58
2022/03/08 02:32:34;;;;;;;53.40;27.13;;;51.80;2227.20;;;;;;5117528;28;20031;-56
2022/03/08 02:35:19;;;;;;;53.38;25.92;;;51.70;2227.20;;;;;;5117021;27;20031;-58
2022/03/08 02:37:52;;;;;;;54.97;27.00;;;51.80;2227.20;;;;;;5117393;28;20444;-56
2022/03/08 02:40:23;;;;;;;57.33;26.77;;;51.80;2227.20;;;;;;5116721;28;20027;-54
2022/03/08 02:42:50;;;;;;;54.03;25.92;;;51.80;2227.20;;;;;;5116968;28;20052;-60
2022/03/08 02:45:17;;;;;;;53.15;26.30;;;51.80;2227.20;;;;;;5116845;28;20088;-55
2022/03/08 02:47:43;;;;;;;56.08;28.08;;;51.80;2227.20;;;;;;5117488;27;20370;-58
2022/03/08 02:50:10;;;;;;;53.78;27.75;;;51.80;2227.20;;;;;;5116722;28;20530;-58
2022/03/08 02:52:38;;;;;;;53.40;26.55;;;51.80;2227.20;;;;;;5116827;28;20031;-57
2022/03/08 02:55:05;;;;;;;52.90;26.88;;;51.80;2227.20;;;;;;5116689;28;20079;-54
2022/03/08 02:57:31;;;;;;;51.88;24.23;;;51.70;2227.20;;;;;;5124607;27;20111;-57
2022/03/08 02:59:57;;;;;;;51.70;25.10;;;51.70;2227.20;;;;;;5138209;27;20055;-57
2022/03/08 03:02:22;;;;;;;49.83;25.17;;;51.80;2227.20;;;;;;5136556;27;20391;-59
2022/03/08 03:04:48;;;;;;;49.00;24.13;;;51.80;2227.20;;;;;;5135730;27;20023;-58
2022/03/08 03:07:15;;;;;;;52.30;25.55;;;51.70;2227.20;;;;;;5136783;27;20043;-57
2022/03/08 03:09:41;;;;;;;50.58;25.25;;;51.80;2227.20;;;;;;5133805;27;20488;-58
2022/03/08 03:12:09;;;;;;;50.00;26.08;;;51.80;2227.20;;;;;;5136773;27;20119;-58
2022/03/08 03:14:35;;;;;;;48.08;24.60;;;51.80;2227.20;;;;;;5136752;27;20023;-58
2022/03/08 03:17:01;;;;;;;50.60;25.13;;;51.80;2227.20;;;;;;5137053;27;20031;-59
2022/03/08 03:19:27;;;;;;;50.72;24.88;;;51.70;2227.20;;;;;;5135365;27;20067;-59
2022/03/08 03:21:53;;;;;;;50.28;25.15;;;51.70;2227.20;;;;;;5136972;27;20107;-56
2022/03/08 03:24:19;;;;;;;52.95;26.15;;;51.70;2227.20;;;;;;5135998;27;20568;-55
2022/03/08 03:26:44;;;;;;;51.55;25.30;;;51.70;2227.20;;;;;;5136319;27;20031;-60
2022/03/08 03:29:10;;;;;;;49.05;24.00;;;51.70;2227.20;;;;;;5136688;27;20027;-59
2022/03/08 03:31:36;;;;;;;50.63;25.35;;;51.70;2227.20;;;;;;5136671;27;20031;-57
2022/03/08 03:34:02;;;;;;;49.88;24.65;;;51.70;2227.20;;;;;;5136204;27;20445;-57
2022/03/08 03:36:28;;;;;;;49.60;25.13;;;51.70;2227.20;;;;;;5134304;27;20110;-58
2022/03/08 03:38:53;;;;;;;48.75;24.45;;;51.70;2227.20;;;;;;5135412;27;20397;-59
2022/03/08 03:41:19;;;;;;;48.20;25.55;;;51.70;2227.20;;;;;;5135796;27;20093;-57
2022/03/08 03:43:45;;;;;;;47.95;23.35;;;51.70;2227.20;;;;;;5135919;27;20075;-56
2022/03/08 03:46:11;;;;;;;50.50;24.00;;;51.60;2227.20;;;;;;5135998;27;20027;-59
2022/03/08 03:48:37;;;;;;;46.78;24.42;;;51.60;2227.20;;;;;;5136131;27;20023;-58
2022/03/08 03:51:03;;;;;;;48.38;24.00;;;51.60;2227.20;;;;;;5134988;27;20054;-55
2022/03/08 03:53:29;;;;;;;45.53;23.63;;;51.70;2227.20;;;;;;5133240;27;20027;-55
2022/03/08 03:55:55;;;;;;;47.80;24.10;;;51.70;2227.20;;;;;;5135898;27;20038;-58
2022/03/08 03:58:24;;;;;;;47.00;23.65;;;51.70;2227.20;;;;;;5135622;27;20051;-57
2022/03/08 04:00:49;;;;;;;45.50;23.02;;;51.70;2227.20;;;;;;5135744;27;20063;-57
2022/03/08 04:03:18;;;;;;;45.03;22.50;;;51.70;2227.20;;;;;;5135828;27;20035;-57
2022/03/08 04:05:44;;;;;;;46.63;23.05;;;51.70;2227.20;;;;;;5135777;27;20023;-57
2022/03/08 04:08:10;;;;;;;45.70;23.90;;;51.80;2227.20;;;;;;5135604;27;20031;-58
2022/03/08 04:10:37;;;;;;;47.85;23.90;;;51.70;2227.20;;;;;;5132348;27;20019;-54
2022/03/08 04:13:03;;;;;;;51.22;24.08;;;51.70;2227.20;;;;;;5135747;27;20023;-55
2022/03/08 04:15:29;;;;;;;45.20;23.88;;;51.70;2227.20;;;;;;5135324;27;20031;-55
2022/03/08 04:17:55;;;;;;;45.85;23.30;;;51.70;2227.20;;;;;;5135358;27;20027;-54
2022/03/08 04:20:20;;;;;;;47.97;23.33;;;51.70;2201.60;;;;;;5135347;27;20027;-56
2022/03/08 04:22:46;;;;;;;47.40;24.10;;;51.70;2201.60;;;;;;5135470;27;20042;-59
2022/03/08 04:25:12;;;;;;;43.97;22.55;;;51.80;2227.20;;;;;;5133897;27;20041;-60
2022/03/08 04:27:38;;;;;;;45.92;23.60;;;51.80;2201.60;;;;;;5134955;27;20019;-57
2022/03/08 04:30:06;;;;;;;45.67;23.02;;;51.80;2201.60;;;;;;5135455;27;20019;-58
2022/03/08 04:32:32;;;;;;;50.78;25.02;;;51.80;2201.60;;;;;;5126533;27;20032;-57
2022/03/08 04:34:58;;;;;;;50.60;24.58;;;51.80;2201.60;;;;;;5114891;28;20065;-58
2022/03/08 04:37:23;;;;;;;47.35;24.02;;;51.80;2201.60;;;;;;5115431;28;20048;-55
2022/03/08 04:39:49;;;;;;;44.50;23.30;;;51.80;2201.60;;;;;;5113906;27;20073;-57
2022/03/08 04:42:15;;;;;;;48.35;23.98;;;51.80;2176.00;;;;;;5114451;28;20114;-58
2022/03/08 04:44:40;;;;;;;47.08;23.95;;;51.80;2201.60;;;;;;5114404;28;20104;-56
2022/03/08 04:47:06;;;;;;;44.60;22.85;;;51.80;2176.00;;;;;;5128483;27;20027;-58
2022/03/08 04:49:35;;;;;;;50.70;23.70;;;51.70;2176.00;;;;;;5135835;27;20054;-60
2022/03/08 04:52:00;;;;;;;46.10;23.08;;;51.70;2176.00;;;;;;5134979;27;20023;-57
2022/03/08 04:54:26;;;;;;;44.88;22.98;;;51.70;2176.00;;;;;;5134837;27;20072;-59
2022/03/08 04:56:52;;;;;;;49.25;23.83;;;51.70;2176.00;;;;;;5134387;27;20472;-58
2022/03/08 04:59:17;;;;;;;186.02;57.40;;;51.70;2176.00;;;;;;5133697;27;20034;-57
2022/03/08 05:01:46;;;;;;;64.88;28.35;;;51.70;2176.00;;;;;;5134706;27;20023;-58
2022/03/08 05:04:12;;;;;;;185.88;56.67;;;51.60;2176.00;;;;;;5134897;27;20329;-58
2022/03/08 05:06:37;;;;;;;121.28;42.28;;;51.60;2176.00;;;;;;5134482;27;20030;-57
2022/03/08 05:09:03;;;;;;;85.32;32.88;;;51.60;2150.40;;;;;;5134389;27;20023;-57
2022/03/08 05:11:29;;;;;;;66.20;28.30;;;51.60;2124.80;;;;;;5134310;27;20015;-59
2022/03/08 05:13:55;;;;;;;112.47;39.47;;;51.60;2099.20;;;;;;5134641;27;20034;-59
2022/03/08 05:16:20;;;;;;;84.15;31.85;;;51.70;2073.60;;;;;;5133949;27;20035;-59
2022/03/08 05:18:46;;;;;;;61.83;26.65;;;51.60;2048.00;;;;;;5134274;27;20461;-53
2022/03/08 05:21:12;;;;;;;91.78;33.15;;;51.70;2048.00;;;;;;5134253;27;20015;-56
2022/03/08 05:23:38;;;;;;;114.80;38.53;;;51.70;2048.00;;;;;;5132382;27;20423;-57
2022/03/08 05:26:06;;;;;;;74.43;29.33;;;51.70;2048.00;;;;;;5134081;27;20023;-54
2022/03/08 05:28:33;;;;;;;91.07;37.10;;;51.70;2048.00;;;;;;5134006;27;20023;-54
2022/03/08 05:30:58;;;;;;;69.80;32.45;;;51.70;2048.00;;;;;;5134612;27;20380;-55
2022/03/08 05:33:25;;;;;;;89.75;38.55;;;51.80;2048.00;;;;;;5135616;28;20168;-55
2022/03/08 05:35:50;;;;;;;61.40;29.33;;;51.80;2048.00;;;;;;5135259;28;20118;-56
2022/03/08 05:38:17;;;;;;;69.90;34.05;;;51.80;2048.00;;;;;;5135244;28;20372;-56
2022/03/08 05:40:43;;;;;;;86.55;38.83;;;51.80;2022.40;;;;;;5133381;27;20101;-56
2022/03/08 05:43:09;;;;;;;92.45;36.95;;;51.90;2022.40;;;;;;5135031;27;20416;-55
2022/03/08 05:45:34;;;;;;;92.47;34.63;;;51.90;2022.40;;;;;;5135351;27;20031;-56
2022/03/08 05:48:00;;;;;;;88.90;37.55;;;51.90;2022.40;;;;;;5131969;28;20027;-55
2022/03/08 05:50:29;;;;;;;98.93;40.42;;;52.00;2022.40;;;;;;5135161;28;20102;-54
2022/03/08 05:52:55;;;;;;;139.27;54.10;;;52.00;2022.40;;;;;;5135045;27;20490;-55
2022/03/08 05:55:20;;;;;;;130.13;50.42;;;52.00;1996.80;;;;;;5134799;28;20110;-55
2022/03/08 05:57:46;;;;;;;226.65;74.72;;;52.00;1996.80;;;;;;5133067;27;20054;-56
2022/03/08 06:00:13;;;;;;;287.67;90.82;;;52.00;1996.80;;;;;;5135074;27;20100;-56
2022/03/08 06:02:39;;;;;;;223.48;78.88;;;52.00;2022.40;;;;;;5136615;27;20035;-56
2022/03/08 06:05:05;;;;;;;240.80;78.65;;;51.90;2022.40;;;;;;5138926;27;20133;-57
2022/03/08 06:07:31;;;;;;;148.00;51.85;;;51.90;1996.80;;;;;;5138979;27;20016;-56
2022/03/08 06:09:56;;;;;;;257.65;75.00;;;52.00;1996.80;;;;;;5137979;27;20572;-55
2022/03/08 06:12:25;;;;;;;206.27;67.63;;;52.00;1996.80;;;;;;5137593;27;20106;-55
2022/03/08 06:14:51;;;;;;;342.73;107.93;;;52.00;1996.80;;;;;;5135497;27;20023;-54
2022/03/08 06:17:16;;;;;;;374.20;116.70;;;52.00;1996.80;;;;;;5136641;27;20050;-55
2022/03/08 06:19:42;;;;;;;236.55;76.78;;;52.10;1996.80;;;;;;5121572;27;20035;-54
2022/03/08 06:22:08;;;;;;;177.13;58.75;;;52.10;1996.80;;;;;;5118373;28;20035;-57
2022/03/08 06:24:33;;;;;;;215.35;64.13;;;52.10;2022.40;;;;;;5129250;27;20023;-56
2022/03/08 06:26:59;;;;;;;216.13;62.75;;;76.80;1996.80;;;;;;5117947;28;20027;-58
2022/03/08 06:29:25;;;;;;;319.58;81.60;;;76.90;1971.20;;;;;;5136484;27;20051;-57
2022/03/08 06:31:50;;;;;;;251.43;70.68;;;77.00;1971.20;;;;;;5134436;27;20023;-55
2022/03/08 06:34:16;;;;;;;229.60;67.28;;;77.10;1945.60;;;;;;5136743;27;20062;-56
2022/03/08 06:36:42;;;;;;;219.77;62.22;;;77.20;1945.60;;;;;;5135403;27;20031;-55
2022/03/08 06:39:08;;;;;;;256.08;74.75;;;77.30;1920.00;;;;;;5135933;27;20188;-55
2022/03/08 06:41:33;;;;;;;141.55;47.83;;;77.20;1945.60;;;;;;5136599;27;20109;-56
2022/03/08 06:44:00;;;;;;;144.45;48.25;;;77.30;1920.00;;;;;;5137233;27;20113;-55
2022/03/08 06:46:26;;;;;;;50.42;26.35;;;77.50;1894.40;;;;;;5137248;27;20027;-56
2022/03/08 06:48:51;;;;;;;104.03;37.67;;;77.60;1868.80;;;;;;5116242;27;20038;-55
2022/03/08 06:51:17;;;;;;;107.30;37.75;;;77.70;1868.80;;;;;;5123888;27;20027;-57
2022/03/08 06:53:43;;;;;;;79.03;36.97;;;102.60;1843.20;;;;;;5137379;27;20027;-56
2022/03/08 06:56:09;;;;;;;98.82;35.05;;;102.90;1792.00;;;;;;5137332;27;20023;-55
2022/03/08 06:58:34;;;;;;;115.95;40.63;;;128.30;1766.40;;;;;;5137119;27;20060;-57
2022/03/08 07:01:00;;;;;;;106.57;41.75;;;128.70;1715.20;;;;;;5136985;27;20030;-57
2022/03/08 07:03:26;;;;;;;92.50;38.03;;;179.20;1612.80;;;;;;5136255;27;20023;-57
2022/03/08 07:05:52;;;;;;;95.32;41.63;;;205.30;1459.20;;;;;;5116350;28;20016;-57
2022/03/08 07:08:18;;;;;;;58.88;31.55;;;281.90;1254.40;;;;;;5116451;28;20035;-56
2022/03/08 07:10:44;;;;;;;86.22;45.60;;;332.80;1152.00;;;;;;5116308;27;20534;-57
2022/03/08 07:13:09;;;;;;;44.95;25.65;;;358.60;1049.60;;;;;;5118406;27;20062;-56
2022/03/08 07:15:35;;;;;;;34.80;22.58;;;359.20;998.40;;;;;;5136403;27;20019;-57
2022/03/08 07:18:01;;;;;;;30.27;20.52;;;409.70;947.20;;;;;;5136284;27;20060;-56
2022/03/08 07:20:27;;;;;;;28.65;19.60;;;410.40;921.60;;;;;;5134798;27;20531;-57
2022/03/08 07:22:52;;;;;;;32.95;22.30;;;436.00;870.40;;;;;;5136637;27;20034;-57
2022/03/08 07:25:18;;;;;;;32.38;22.27;;;461.30;819.20;;;;;;5136962;27;20095;-56
2022/03/08 07:27:44;;;;;;;27.52;19.63;;;461.10;844.80;;;;;;5136683;27;20098;-57
2022/03/08 07:30:10;;;;;;;39.28;27.95;;;461.20;844.80;;;;;;5116430;27;20027;-57
2022/03/08 07:32:36;;;;;;;30.38;21.80;;;436.00;844.80;;;;;;5125929;27;20035;-61
2022/03/08 07:35:05;;;;;;;23.65;17.73;;;435.70;870.40;;;;;;5132506;27;20468;-60
2022/03/08 07:37:36;;;;;;;22.23;16.88;;;410.10;947.20;;;;;;5114788;28;20133;-60
2022/03/08 07:40:04;;;;;;;25.63;18.02;;;410.10;947.20;;;;;;5114953;28;20039;-61
2022/03/08 07:42:30;;;;;;;23.13;17.90;;;435.70;870.40;;;;;;5114264;28;20181;-59
2022/03/08 07:44:55;;;;;;;23.70;16.08;;;461.10;870.40;;;;;;5124577;27;20110;-61
2022/03/08 07:47:21;;;;;;;17.80;14.43;;;461.60;819.20;;;;;;5135285;27;20587;-59
2022/03/08 07:49:47;;;;;;;18.02;13.25;;;486.60;819.20;;;;;;5135324;27;20050;-61
2022/03/08 07:52:13;;;;;;;16.90;12.73;;;487.30;768.00;;;;;;5135320;27;20031;-61
2022/03/08 07:54:39;;;;;;;16.67;12.27;;;512.60;742.40;;;;;;5116046;27;20330;-61
2022/03/08 07:57:04;;;;;;;16.25;13.25;;;537.90;716.80;;;;;;5128390;27;20099;-61
2022/03/08 07:59:30;;;;;;;18.60;15.25;;;564.00;716.80;;;;;;5115008;28;20027;-60
2022/03/08 08:01:57;;;;;;;27.95;22.08;;;589.10;691.20;;;;;;5119337;27;20043;-61
2022/03/08 08:04:23;;;;;;;22.02;17.48;;;614.50;665.60;;;;;;5135475;27;20357;-61
2022/03/08 08:06:49;;;;;;;20.52;16.92;;;615.10;614.40;;;;;;5134770;27;20076;-61
2022/03/08 08:09:15;;;;;;;47.38;34.95;;;640.30;614.40;;;;;;5134273;27;20023;-60
2022/03/08 08:11:41;;;;;;;34.30;26.90;;;640.60;588.80;;;;;;5113566;27;20042;-60
2022/03/08 08:14:07;;;;;;;27.02;22.80;;;665.60;588.80;;;;;;5114218;28;20027;-61
2022/03/08 08:16:32;;;;;;;21.67;18.25;;;666.10;563.20;;;;;;5114751;28;20023;-61
2022/03/08 08:18:58;;;;;;;25.98;23.27;;;666.00;563.20;;;;;;5113998;28;20036;-61
2022/03/08 08:21:24;;;;;;;23.35;19.08;;;666.20;563.20;;;;;;5114641;28;20099;-61
2022/03/08 08:23:50;;;;;;;16.75;13.60;;;691.20;537.60;;;;;;5113142;28;20044;-59
2022/03/08 08:26:16;;;;;;;15.90;13.10;;;666.20;537.60;;;;;;5118869;27;20038;-58
2022/03/08 08:28:42;;;;;;;12.85;11.43;;;666.20;537.60;;;;;;5113706;27;20112;-58
2022/03/08 08:31:08;;;;;;;15.05;12.48;;;691.50;537.60;;;;;;5113872;28;20035;-58
2022/03/08 08:33:34;;;;;;;15.30;13.52;;;716.80;512.00;;;;;;5133016;27;20035;-58
2022/03/08 08:36:01;;;;;;;14.35;12.85;;;716.80;512.00;;;;;;5134498;27;20023;-58
2022/03/08 08:38:26;;;;;;;20.45;17.48;;;717.30;512.00;;;;;;5134429;27;20035;-58
2022/03/08 08:40:52;;;;;;;17.80;15.90;;;717.60;486.40;;;;;;5134370;27;20045;-59
2022/03/08 08:43:18;;;;;;;14.55;12.57;;;742.90;460.80;;;;;;5132279;27;20127;-58
2022/03/08 08:45:43;;;;;;;16.30;14.60;;;742.90;460.80;;;;;;5133102;27;20031;-58
2022/03/08 08:48:09;;;;;;;17.75;15.43;;;742.60;486.40;;;;;;5134060;27;20039;-59
2022/03/08 08:50:36;;;;;;;20.35;16.60;;;768.10;435.20;;;;;;5134086;27;20030;-58
2022/03/08 08:53:02;;;;;;;16.95;14.02;;;768.20;435.20;;;;;;5133503;27;20039;-59
2022/03/08 08:55:28;;;;;;;14.68;12.77;;;793.60;435.20;;;;;;5134476;27;20106;-59
2022/03/08 08:57:54;;;;;;;14.85;13.25;;;743.00;460.80;;;;;;5126452;27;20018;-58
2022/03/08 09:00:20;;;;;;;12.05;10.75;;;742.70;486.40;;;;;;5122984;27;20024;-60
2022/03/08 09:02:46;;;;;;;12.50;11.20;;;768.70;409.60;;;;;;5132603;27;20160;-59
2022/03/08 09:05:13;;;;;;;15.02;13.52;;;794.00;409.60;;;;;;5133799;27;20035;-58
2022/03/08 09:07:39;;;;;;;13.50;11.27;;;768.90;409.60;;;;;;5132182;27;20023;-59
2022/03/08 09:10:06;;;;;;;26.48;19.70;;;768.00;435.20;;;;;;5120696;27;20027;-59
2022/03/08 09:12:32;;;;;;;20.58;15.65;;;717.30;460.80;;;;;;5133103;27;20486;-59
2022/03/08 09:14:58;;;;;;;9.30;8.30;;;691.60;486.40;;;;;;5133231;27;20128;-61
2022/03/08 09:17:24;;;;;;;10.77;9.30;;;666.10;512.00;;;;;;5133786;27;20023;-61
2022/03/08 09:19:49;;;;;;;14.18;11.35;;;691.50;486.40;;;;;;5133287;27;20027;-61
2022/03/08 09:22:15;;;;;;;22.38;18.33;;;692.00;460.80;;;;;;5133753;27;20027;-59
2022/03/08 09:24:41;;;;;;;12.65;11.10;;;717.10;460.80;;;;;;5132217;27;20034;-59
2022/03/08 09:27:07;;;;;;;17.80;15.25;;;742.50;460.80;;;;;;5132437;27;20108;-59
2022/03/08 09:29:33;;;;;;;10.50;9.40;;;743.00;435.20;;;;;;5129269;27;20131;-59
2022/03/08 09:31:59;;;;;;;13.15;11.75;;;768.00;409.60;;;;;;5132854;27;20102;-58
2022/03/08 09:34:25;;;;;;;17.55;14.30;;;742.60;435.20;;;;;;5134477;27;20118;-58
2022/03/08 09:36:50;;;;;;;15.50;13.88;;;691.50;460.80;;;;;;5137969;27;20023;-59
2022/03/08 09:39:16;;;;;;;15.15;12.30;;;640.40;512.00;;;;;;5137404;27;20150;-58
2022/03/08 09:41:43;;;;;;;13.52;10.85;;;614.60;563.20;;;;;;5137319;27;20043;-58
2022/03/08 09:44:13;;;;;;;30.10;21.85;;;614.50;563.20;;;;;;5137402;27;20043;-58
2022/03/08 09:46:40;;;;;;;12.40;9.90;;;589.60;588.80;;;;;;5137520;27;20034;-58
2022/03/08 09:49:06;;;;;;;27.40;19.48;;;614.70;537.60;;;;;;5137102;27;20038;-58
2022/03/08 09:51:32;;;;;;;11.25;9.70;;;640.40;512.00;;;;;;5137325;27;20027;-58
2022/03/08 09:53:57;;;;;;;15.52;13.40;;;666.20;512.00;;;;;;5137107;27;20051;-59
2022/03/08 09:56:25;;;;;;;15.95;13.43;;;640.40;512.00;;;;;;5136426;27;20110;-58
2022/03/08 09:58:50;;;;;;;15.90;14.02;;;589.70;588.80;;;;;;5136869;27;20060;-59
2022/03/08 10:01:16;;;;;;;20.23;15.07;;;564.10;614.40;;;;;;5136884;27;20036;-58
2022/03/08 10:03:44;;;;;;;22.90;14.35;;;538.40;640.00;;;;;;5134742;27;20039;-58
2022/03/08 10:06:11;;;;;;;16.02;12.35;;;512.80;691.20;;;;;;5136391;27;20118;-58
2022/03/08 10:08:37;;;;;;;14.38;11.23;;;512.90;691.20;;;;;;5137685;27;20360;-58
2022/03/08 10:11:14;;;;;;;16.55;12.90;;;512.10;691.20;;;;;;5136370;27;20031;-61
2022/03/08 10:13:45;;;;;;;16.20;13.30;;;486.80;665.60;;;;;;5137504;27;20593;-61
2022/03/08 10:16:11;;;;;;;17.77;14.18;;;461.60;691.20;;;;;;5136906;27;20035;-61
2022/03/08 10:18:41;;;;;;;15.75;11.50;;;461.00;742.40;;;;;;5137328;27;20052;-61
2022/03/08 10:21:34;;;;;;;15.18;12.25;;;435.50;768.00;;;;;;5119318;27;20043;-61
2022/03/08 10:24:12;;;;;;;14.45;11.15;;;410.20;819.20;;;;;;5118570;27;20046;-61
2022/03/08 10:26:59;;;;;;;16.50;12.07;;;410.40;819.20;;;;;;5135828;27;20031;-61
2022/03/08 10:29:31;;;;;;;20.50;12.80;;;435.90;768.00;;;;;;5134335;27;20051;-60
2022/03/08 10:32:06;;;;;;;18.42;13.98;;;486.90;716.80;;;;;;5136404;27;20027;-61
2022/03/08 10:34:32;;;;;;;15.90;11.52;;;538.40;665.60;;;;;;5137069;27;20042;-61
2022/03/08 10:37:07;;;;;;;18.20;13.48;;;537.60;691.20;;;;;;5134952;27;20063;-59
2022/03/08 10:39:34;;;;;;;20.73;13.88;;;512.90;665.60;;;;;;5130863;27;20019;-60
2022/03/08 10:42:00;;;;;;;18.50;13.60;;;512.70;691.20;;;;;;5136251;27;20081;-61
2022/03/08 10:44:40;;;;;;;16.00;12.35;;;537.70;691.20;;;;;;5137202;27;20023;-60
2022/03/08 10:47:11;;;;;;;63.25;52.72;;;589.40;588.80;;;;;;5136356;27;20031;-59
2022/03/08 10:49:49;;;;;;;52.00;37.22;;;640.40;512.00;;;;;;5137048;27;20495;-58
2022/03/08 10:52:15;;;;;;;9.65;8.57;;;691.60;460.80;;;;;;5137152;27;20068;-58
2022/03/08 10:54:40;;;;;;;9.48;8.30;;;691.20;486.40;;;;;;5136960;27;20028;-59
2022/03/08 10:57:09;;;;;;;9.05;7.60;;;615.20;512.00;;;;;;5136190;27;20046;-58
2022/03/08 10:59:35;;;;;;;10.15;8.45;;;563.20;640.00;;;;;;5136423;27;20049;-59
2022/03/08 11:02:22;;;;;;;19.55;14.73;;;564.00;614.40;;;;;;5135687;27;20043;-58
2022/03/08 11:04:48;;;;;;;11.73;8.77;;;588.90;588.80;;;;;;5132557;27;20484;-58
2022/03/08 11:07:14;;;;;;;11.50;9.48;;;538.40;640.00;;;;;;5137033;27;20491;-58
2022/03/08 11:09:41;;;;;;;16.35;11.45;;;512.40;665.60;;;;;;5136808;27;20023;-59
2022/03/08 11:12:07;;;;;;;15.40;11.55;;;461.50;742.40;;;;;;5136679;27;20411;-58
2022/03/08 11:14:34;;;;;;;11.65;9.13;;;435.50;768.00;;;;;;5135348;27;20023;-58
2022/03/08 11:17:00;;;;;;;17.63;12.35;;;409.70;844.80;;;;;;5135386;27;20484;-58
2022/03/08 11:19:27;;;;;;;21.05;14.60;;;384.40;844.80;;;;;;5135281;27;20110;-58
2022/03/08 11:21:56;;;;;;;17.13;12.05;;;359.20;896.00;;;;;;5133165;27;20034;-58
2022/03/08 11:24:24;;;;;;;14.55;11.35;;;435.40;819.20;;;;;;5133332;27;20114;-58
2022/03/08 11:26:50;;;;;;;17.27;11.80;;;435.60;819.20;;;;;;5135494;27;20034;-61
2022/03/08 11:29:16;;;;;;;17.65;13.30;;;410.30;844.80;;;;;;5135785;27;20027;-59
2022/03/08 11:31:44;;;;;;;22.70;13.95;;;409.60;870.40;;;;;;5132022;27;20015;-58
2022/03/08 11:34:26;;;;;;;18.33;12.57;;;384.30;896.00;;;;;;5135961;27;20380;-58
2022/03/08 11:36:59;;;;;;;21.35;14.55;;;358.80;947.20;;;;;;5136458;27;20102;-58
2022/03/08 11:39:27;;;;;;;24.95;17.13;;;333.40;998.40;;;;;;5136066;27;20371;-58
2022/03/08 11:42:18;;;;;;;20.73;13.07;;;333.00;1024.00;;;;;;5135064;27;20358;-58
2022/03/08 11:45:03;;;;;;;37.45;27.10;;;359.00;972.80;;;;;;5135326;27;20087;-57
2022/03/08 11:47:45;;;;;;;23.27;16.63;;;461.30;819.20;;;;;;5134404;27;20031;-57
2022/03/08 11:50:31;;;;;;;19.35;14.30;;;461.10;793.60;;;;;;5133947;27;20060;-58
2022/03/08 11:53:06;;;;;;;21.75;14.45;;;435.20;844.80;;;;;;5135407;27;20027;-59
2022/03/08 11:55:35;;;;;;;27.80;17.50;;;409.90;870.40;;;;;;5134752;27;20072;-58
2022/03/08 11:58:16;;;;;;;29.17;17.90;;;384.50;896.00;;;;;;5128223;27;20027;-58
2022/03/08 12:00:42;;;;;;;42.63;24.08;;;358.90;947.20;;;;;;5132388;27;20023;-59
2022/03/08 12:03:23;;;;;;;36.10;22.95;;;358.70;972.80;;;;;;5134677;27;20031;-58
2022/03/08 12:06:13;;;;;;;18.50;12.93;;;409.60;896.00;;;;;;5120574;27;20027;-58
2022/03/08 12:08:40;;;;;;;17.67;13.95;;;435.50;819.20;;;;;;5122789;27;20484;-58